Time,TemperatureF,DewpointF,PressureIn,WindDirection,WindDirectionDegrees,WindSpeedMPH,WindSpeedGustMPH,Humidity,HourlyPrecipIn,Conditions,Clouds,dailyrainin,SolarRadiationWatts/m^2,SoftwareType,DateUTC
2013-05-01 00:03:00,63.0,60.0,-100.00,ESE,121,0.0,3.0,91,0.00,,,-99.99,0.000000,,2013-05-01 04:03:00,
2013-05-01 00:12:00,60.0,59.0,-100.00,NW,317,0.0,1.0,96,0.00,,,-99.99,0.000000,,2013-05-01 04:12:00,
2013-05-01 00:32:00,60.0,59.0,-100.00,NW,317,0.0,1.0,96,0.00,,,-99.99,0.000000,,2013-05-01 04:32:00,
2013-05-01 00:43:00,60.0,59.0,-100.00,NW,317,0.0,1.0,96,0.00,,,-99.99,0.000000,,2013-05-01 04:43:00,
2013-05-01 00:52:00,60.0,59.0,-100.00,NW,317,0.0,1.0,96,0.00,,,-99.99,0.000000,,2013-05-01 04:52:00,
2013-05-01 01:02:00,60.0,59.0,-100.00,NW,317,0.0,1.0,96,0.00,,,-99.99,0.000000,,2013-05-01 05:02:00,
2013-05-01 01:12:00,60.0,59.0,-100.00,West,281,0.0,2.0,96,0.00,,,-99.99,0.000000,,2013-05-01 05:12:00,
2013-05-01 01:32:00,60.0,59.0,-100.00,West,281,0.0,2.0,96,0.00,,,-99.99,0.000000,,2013-05-01 05:32:00,
2013-05-01 01:42:00,60.0,59.0,-100.00,West,281,0.0,2.0,96,0.00,,,-99.99,0.000000,,2013-05-01 05:42:00,
2013-05-01 01:52:00,60.0,59.0,-100.00,West,281,0.0,2.0,96,0.00,,,-99.99,0.000000,,2013-05-01 05:52:00,
2013-05-01 02:02:00,60.0,59.0,-100.00,West,281,0.0,2.0,96,0.00,,,-99.99,0.000000,,2013-05-01 06:02:00,
2013-05-01 02:32:00,59.0,58.0,-100.00,NNW,347,0.0,0.0,98,0.00,,,-99.99,0.000000,,2013-05-01 06:32:00,
2013-05-01 02:42:00,59.0,58.0,-100.00,NNW,347,0.0,0.0,98,0.00,,,-99.99,0.000000,,2013-05-01 06:42:00,
2013-05-01 02:52:00,59.0,58.0,-100.00,NNW,347,0.0,0.0,98,0.00,,,-99.99,0.000000,,2013-05-01 06:52:00,
2013-05-01 03:01:00,59.0,58.0,-100.00,NNW,347,0.0,0.0,98,0.00,,,-99.99,0.000000,,2013-05-01 07:01:00,
2013-05-01 03:11:00,59.0,58.0,-100.00,NNW,347,0.0,0.0,98,0.00,,,-99.99,0.000000,,2013-05-01 07:11:00,
2013-05-01 03:12:00,60.0,59.0,-100.00,NNW,340,0.0,1.0,97,0.00,,,0.00,0.000000,,2013-05-01 07:12:00,
2013-05-01 03:32:00,60.0,59.0,-100.00,NNW,340,0.0,1.0,97,0.00,,,0.00,0.000000,,2013-05-01 07:32:00,
2013-05-01 03:42:00,60.0,59.0,-100.00,NNW,340,0.0,1.0,97,0.00,,,0.00,0.000000,,2013-05-01 07:42:00,
2013-05-01 03:52:00,60.0,59.0,-100.00,NNW,340,0.0,1.0,97,0.00,,,0.00,0.000000,,2013-05-01 07:52:00,
2013-05-01 04:02:00,60.0,59.0,-100.00,NNW,340,0.0,1.0,97,0.00,,,0.00,0.000000,,2013-05-01 08:02:00,
2013-05-01 04:12:00,59.0,58.0,-100.00,NNW,337,0.0,2.0,96,0.00,,,0.00,0.000000,,2013-05-01 08:12:00,
2013-05-01 04:42:00,59.0,58.0,-100.00,NNW,337,0.0,2.0,96,0.00,,,0.00,0.000000,,2013-05-01 08:42:00,
2013-05-01 04:53:00,59.0,58.0,-100.00,NNW,337,0.0,2.0,96,0.00,,,0.00,0.000000,,2013-05-01 08:53:00,
2013-05-01 05:02:00,59.0,58.0,-100.00,NNW,337,0.0,2.0,96,0.00,,,0.00,0.000000,,2013-05-01 09:02:00,
2013-05-01 05:12:00,59.0,57.0,-100.00,NNW,338,0.0,3.0,94,0.00,,,-99.99,0.000000,,2013-05-01 09:12:00,
2013-05-01 05:33:00,59.0,57.0,-100.00,NNW,338,0.0,3.0,94,0.00,,,-99.99,0.000000,,2013-05-01 09:33:00,
2013-05-01 05:43:00,59.0,57.0,-100.00,NNW,338,0.0,3.0,94,0.00,,,-99.99,0.000000,,2013-05-01 09:43:00,
2013-05-01 05:53:00,59.0,57.0,-100.00,NNW,338,0.0,3.0,94,0.00,,,-99.99,0.000000,,2013-05-01 09:53:00,
2013-05-01 06:03:00,59.0,57.0,-100.00,NNW,338,0.0,3.0,94,0.00,,,-99.99,0.000000,,2013-05-01 10:03:00,
2013-05-01 06:33:00,58.0,56.0,-100.00,NNW,337,0.0,5.0,93,0.00,,,-99.99,0.000000,,2013-05-01 10:33:00,
2013-05-01 06:42:00,58.0,56.0,-100.00,NNW,337,0.0,5.0,93,0.00,,,-99.99,0.000000,,2013-05-01 10:42:00,
2013-05-01 06:53:00,58.0,56.0,-100.00,NNW,337,0.0,5.0,93,0.00,,,-99.99,0.000000,,2013-05-01 10:53:00,
2013-05-01 07:03:00,58.0,56.0,-100.00,NNW,337,0.0,5.0,93,0.00,,,-99.99,0.000000,,2013-05-01 11:03:00,
2013-05-01 07:11:00,58.0,56.0,-100.00,NNW,337,0.0,5.0,93,0.00,,,-99.99,0.000000,,2013-05-01 11:11:00,
2013-05-01 07:32:00,57.0,55.0,-100.00,NW,322,0.0,4.0,94,0.00,,,-99.99,4.000000,,2013-05-01 11:32:00,
2013-05-01 07:42:00,57.0,55.0,-100.00,NW,322,0.0,4.0,94,0.00,,,-99.99,4.000000,,2013-05-01 11:42:00,
2013-05-01 07:52:00,57.0,55.0,-100.00,NW,322,0.0,4.0,94,0.00,,,-99.99,4.000000,,2013-05-01 11:52:00,
2013-05-01 08:02:00,57.0,55.0,-100.00,NW,322,0.0,4.0,94,0.00,,,-99.99,4.000000,,2013-05-01 12:02:00,
2013-05-01 08:11:00,57.0,55.0,-100.00,NW,322,0.0,4.0,94,0.00,,,-99.99,4.000000,,2013-05-01 12:11:00,
2013-05-01 09:42:00,61.0,55.0,-100.00,NNW,347,1.0,7.0,81,-99.99,,,0.00,118.000000,,2013-05-01 13:42:00,
2013-05-01 09:52:00,61.0,55.0,-100.00,NNW,347,1.0,7.0,81,-99.99,,,0.00,118.000000,,2013-05-01 13:52:00,
2013-05-01 10:02:00,61.0,55.0,-100.00,NNW,347,1.0,7.0,81,-99.99,,,0.00,118.000000,,2013-05-01 14:02:00,
2013-05-01 10:11:00,61.0,55.0,-100.00,NNW,347,1.0,7.0,81,-99.99,,,0.00,118.000000,,2013-05-01 14:11:00,
2013-05-01 10:42:00,61.0,54.0,-100.00,NNW,336,0.0,4.0,79,0.00,,,-99.99,186.000000,,2013-05-01 14:42:00,
2013-05-01 10:52:00,61.0,54.0,-100.00,NNW,336,0.0,4.0,79,0.00,,,-99.99,186.000000,,2013-05-01 14:52:00,
2013-05-01 11:01:00,61.0,54.0,-100.00,NNW,336,0.0,4.0,79,0.00,,,-99.99,186.000000,,2013-05-01 15:01:00,
2013-05-01 11:11:00,61.0,54.0,-100.00,NNW,336,0.0,4.0,79,0.00,,,-99.99,186.000000,,2013-05-01 15:11:00,
2013-05-01 11:12:00,61.0,54.0,-100.00,North,351,0.0,6.0,79,0.00,,,-99.99,196.000000,,2013-05-01 15:12:00,
2013-05-01 11:43:00,61.0,54.0,-100.00,North,351,0.0,6.0,79,0.00,,,-99.99,196.000000,,2013-05-01 15:43:00,
2013-05-01 11:53:00,61.0,54.0,-100.00,North,351,0.0,6.0,79,0.00,,,-99.99,196.000000,,2013-05-01 15:53:00,
2013-05-01 12:03:00,61.0,54.0,-100.00,North,351,0.0,6.0,79,0.00,,,-99.99,196.000000,,2013-05-01 16:03:00,
2013-05-01 12:12:00,61.0,55.0,-100.00,NE,35,0.0,5.0,80,0.00,,,0.00,145.000000,,2013-05-01 16:12:00,
2013-05-01 12:42:00,61.0,55.0,-100.00,NE,35,0.0,5.0,80,0.00,,,0.00,145.000000,,2013-05-01 16:42:00,
2013-05-01 12:53:00,61.0,55.0,-100.00,NE,35,0.0,5.0,80,0.00,,,0.00,145.000000,,2013-05-01 16:53:00,
2013-05-01 13:02:00,61.0,55.0,-100.00,NE,35,0.0,5.0,80,0.00,,,0.00,145.000000,,2013-05-01 17:02:00,
2013-05-01 13:42:00,67.0,57.0,-100.00,North,7,0.0,5.0,71,0.00,,,-99.99,342.000000,,2013-05-01 17:42:00,
2013-05-01 13:52:00,67.0,57.0,-100.00,North,7,0.0,5.0,71,0.00,,,-99.99,342.000000,,2013-05-01 17:52:00,
2013-05-01 14:02:00,67.0,57.0,-100.00,North,7,0.0,5.0,71,0.00,,,-99.99,342.000000,,2013-05-01 18:02:00,
2013-05-01 14:11:00,67.0,57.0,-100.00,North,7,0.0,5.0,71,0.00,,,-99.99,342.000000,,2013-05-01 18:11:00,
2013-05-01 15:43:00,67.0,55.0,-100.00,North,2,0.0,8.0,66,-99.99,,,0.00,206.000000,,2013-05-01 19:43:00,
2013-05-01 15:52:00,67.0,55.0,-100.00,North,2,0.0,8.0,66,-99.99,,,0.00,206.000000,,2013-05-01 19:52:00,
2013-05-01 16:02:00,67.0,55.0,-100.00,North,2,0.0,8.0,66,-99.99,,,0.00,206.000000,,2013-05-01 20:02:00,
2013-05-01 16:11:00,67.0,55.0,-100.00,North,2,0.0,8.0,66,-99.99,,,0.00,206.000000,,2013-05-01 20:11:00,
2013-05-01 16:42:00,67.0,56.0,-100.00,North,9,0.0,4.0,67,0.00,,,0.00,183.000000,,2013-05-01 20:42:00,
2013-05-01 16:52:00,67.0,56.0,-100.00,North,9,0.0,4.0,67,0.00,,,0.00,183.000000,,2013-05-01 20:52:00,
2013-05-01 17:01:00,67.0,56.0,-100.00,North,9,0.0,4.0,67,0.00,,,0.00,183.000000,,2013-05-01 21:01:00,
2013-05-01 17:11:00,67.0,56.0,-100.00,North,9,0.0,4.0,67,0.00,,,0.00,183.000000,,2013-05-01 21:11:00,
2013-05-01 17:12:00,68.0,57.0,-100.00,NNW,343,0.0,5.0,67,0.00,,,-99.99,212.000000,,2013-05-01 21:12:00,
2013-05-01 17:43:00,68.0,57.0,-100.00,NNW,343,0.0,5.0,67,0.00,,,-99.99,212.000000,,2013-05-01 21:43:00,
2013-05-01 17:53:00,68.0,57.0,-100.00,NNW,343,0.0,5.0,67,0.00,,,-99.99,212.000000,,2013-05-01 21:53:00,
2013-05-01 18:03:00,68.0,57.0,-100.00,NNW,343,0.0,5.0,67,0.00,,,-99.99,212.000000,,2013-05-01 22:03:00,
2013-05-01 18:12:00,66.0,56.0,-100.00,North,359,0.0,6.0,69,0.00,,,0.00,158.000000,,2013-05-01 22:12:00,
2013-05-01 18:33:00,66.0,56.0,-100.00,North,359,0.0,6.0,69,0.00,,,0.00,158.000000,,2013-05-01 22:33:00,
2013-05-01 18:42:00,66.0,56.0,-100.00,North,359,0.0,6.0,69,0.00,,,0.00,158.000000,,2013-05-01 22:42:00,
2013-05-01 18:53:00,66.0,56.0,-100.00,North,359,0.0,6.0,69,0.00,,,0.00,158.000000,,2013-05-01 22:53:00,
2013-05-01 19:02:00,66.0,56.0,-100.00,North,359,0.0,6.0,69,0.00,,,0.00,158.000000,,2013-05-01 23:02:00,
2013-05-01 19:32:00,65.0,57.0,-100.00,NNW,342,0.0,5.0,75,0.00,,,0.00,78.000000,,2013-05-01 23:32:00,
2013-05-01 19:42:00,65.0,57.0,-100.00,NNW,342,0.0,5.0,75,0.00,,,0.00,78.000000,,2013-05-01 23:42:00,
2013-05-01 19:52:00,65.0,57.0,-100.00,NNW,342,0.0,5.0,75,0.00,,,0.00,78.000000,,2013-05-01 23:52:00,
2013-05-01 20:01:00,65.0,57.0,-100.00,NNW,342,0.0,5.0,75,0.00,,,0.00,78.000000,,2013-05-02 00:01:00,
2013-05-01 20:11:00,65.0,57.0,-100.00,NNW,342,0.0,5.0,75,0.00,,,0.00,78.000000,,2013-05-02 00:11:00,
2013-05-01 21:12:00,61.0,57.0,-100.00,NNW,338,0.0,3.0,86,-99.99,,,0.00,0.000000,,2013-05-02 01:12:00,
2013-05-01 21:42:00,61.0,57.0,-100.00,NNW,338,0.0,3.0,86,-99.99,,,0.00,0.000000,,2013-05-02 01:42:00,
2013-05-01 21:52:00,61.0,57.0,-100.00,NNW,338,0.0,3.0,86,-99.99,,,0.00,0.000000,,2013-05-02 01:52:00,
2013-05-01 22:02:00,61.0,57.0,-100.00,NNW,338,0.0,3.0,86,-99.99,,,0.00,0.000000,,2013-05-02 02:02:00,
2013-05-01 23:01:00,61.0,56.0,-100.00,NNW,335,0.0,3.0,85,0.00,,,0.00,0.000000,,2013-05-02 03:01:00,
2013-05-01 23:11:00,61.0,56.0,-100.00,NNW,335,0.0,3.0,85,0.00,,,0.00,0.000000,,2013-05-02 03:11:00,
2013-05-01 23:12:00,60.0,56.0,-100.00,NW,322,0.0,3.0,88,0.00,,,0.00,0.000000,,2013-05-02 03:12:00,
2013-05-01 23:33:00,60.0,56.0,-100.00,NW,322,0.0,3.0,88,0.00,,,0.00,0.000000,,2013-05-02 03:33:00,
2013-05-01 23:43:00,60.0,56.0,-100.00,NW,322,0.0,3.0,88,0.00,,,0.00,0.000000,,2013-05-02 03:43:00,
2013-05-01 23:53:00,60.0,56.0,-100.00,NW,322,0.0,3.0,88,0.00,,,0.00,0.000000,,2013-05-02 03:53:00,